ローマ/フィウミチーノ の空港の天気 - METARとTAF

ローマ・レオナルド・ダ・ビンチ国際空港 ( LIRF / FCO ) - イタリア ローマ
飛行場実況気象(Metar)
観測時間07/22 20:20 CEST (07/22 18:20 UTC)
風向・風速西南西 4m/s
視程10km以上
天気現象
なし
気温26℃
湿度79%
気圧1010hPa
METARLIRF 221820Z 25008KT CAVOK 26/22 Q1010 NOSIG
過去の天気等 Google飛行場航空写真 Wunderground天気予報

過去48時間のMETAR

飛行場予報(TAF)
発表時間: 7/22 20:01 CEST (7/22 18:01 UTC)
予報対象時間: 22日20時 CEST ~ 24日2時 CEST
風向・風速南南西 4m/s
視程10km以上
少しの雲 雲底高度 910m
23日4時 CEST ~ 23日12時 CEST に一時的に
視程4000m
天気現象雷雨
23日6時 CEST ~ 23日7時 CEST に徐々に
風向・風速北西 5m/s
23日10時 CEST ~ 23日17時 CEST に一時的に
風向・風速北北西 9m/s 瞬間風速 14m/s
TAF COR LIRF 221801Z 2218/2324 20008KT 9999 FEW030
TEMPO 2302/2310 4000 TSRA
BECMG 2304/2305 32010KT
TEMPO 2308/2315 34018G28KT